Time;durP1;ratioP1;P1;durP2;ratioP2;P2;SDS_P1;SDS_P2;PMS_P1;PMS_P2;Temp;Humidity;BMP_temperature;BMP_pressure;BME280_temperature;BME280_humidity;BME280_pressure;Samples;Min_cycle;Max_cycle;Signal;HPM_P1;HPM_P2
2022/05/07 00:01:42;;;;;;;3.53;2.10;;;;;;;12.63;100.00;99675.63;4931521;29;20201;-80
2022/05/07 00:04:11;;;;;;;3.47;2.13;;;;;;;12.26;100.00;99683.28;4930352;29;20254;-80
2022/05/07 00:06:40;;;;;;;3.17;2.10;;;;;;;12.34;100.00;99682.78;4932797;29;20193;-80
2022/05/07 00:09:09;;;;;;;2.97;2.10;;;;;;;12.33;100.00;99679.28;4928310;29;20205;-80
2022/05/07 00:11:39;;;;;;;3.67;2.30;;;;;;;12.49;100.00;99681.00;4966311;28;20225;-80
2022/05/07 00:14:08;;;;;;;3.27;2.00;;;;;;;12.18;100.00;99677.59;5011459;28;20193;-81
2022/05/07 00:19:27;;;;;;;3.30;2.00;;;;;;;12.29;100.00;99677.78;5028695;28;20212;-80
2022/05/07 00:21:56;;;;;;;2.93;2.00;;;;;;;12.16;100.00;99678.63;5000915;28;20202;-80
2022/05/07 00:24:26;;;;;;;3.53;2.07;;;;;;;11.91;100.00;99674.84;5075983;28;20219;-80
2022/05/07 00:26:57;;;;;;;2.63;2.13;;;;;;;11.94;100.00;99684.41;5091533;28;20187;-80
2022/05/07 00:29:26;;;;;;;3.93;2.33;;;;;;;12.04;100.00;99688.22;5100027;27;20202;-81
2022/05/07 00:31:56;;;;;;;3.73;2.20;;;;;;;11.96;100.00;99678.06;5089698;28;20212;-80
2022/05/07 00:34:27;;;;;;;3.73;2.03;;;;;;;11.88;100.00;99685.66;5088390;28;20199;-80
2022/05/07 00:37:00;;;;;;;3.03;1.93;;;;;;;12.00;100.00;99686.72;5091251;28;20238;-80
2022/05/07 00:39:32;;;;;;;3.83;2.23;;;;;;;12.07;100.00;99677.44;5098206;28;20203;-80
2022/05/07 00:42:06;;;;;;;3.47;2.20;;;;;;;11.94;100.00;99685.28;5093913;28;20265;-80
2022/05/07 00:44:36;;;;;;;4.10;2.10;;;;;;;11.91;100.00;99680.16;5095286;28;20195;-80
2022/05/07 00:47:24;;;;;;;2.33;2.13;;;;;;;11.99;100.00;99677.03;5092009;28;20192;-80
2022/05/07 00:51:33;;;;;;;3.13;2.23;;;;;;;12.06;100.00;99685.47;5096622;28;20196;-80
2022/05/07 00:52:49;;;;;;;2.20;2.00;;;;;;;11.85;100.00;99682.31;5100265;27;20300;-80
2022/05/07 00:55:18;;;;;;;4.13;2.07;;;;;;;11.95;100.00;99681.66;5095786;28;20196;-81
2022/05/07 00:57:47;;;;;;;5.20;2.47;;;;;;;11.96;100.00;99678.06;5095646;28;20275;-81
2022/05/07 01:00:17;;;;;;;3.07;2.07;;;;;;;12.04;100.00;99674.94;5091429;28;20255;-80
2022/05/07 01:02:48;;;;;;;3.00;2.30;;;;;;;11.91;100.00;99674.00;5090055;28;20266;-80
2022/05/07 01:05:18;;;;;;;4.30;2.60;;;;;;;11.86;100.00;99682.22;5028070;28;20237;-80
2022/05/07 01:07:48;;;;;;;3.63;2.63;;;;;;;11.90;100.00;99669.63;5032441;28;20221;-80
2022/05/07 01:10:19;;;;;;;3.63;2.50;;;;;;;11.95;100.00;99671.03;5025982;28;20194;-80
2022/05/07 01:12:48;;;;;;;4.70;2.10;;;;;;;11.96;100.00;99670.09;5026503;28;20218;-80
2022/05/07 01:15:19;;;;;;;3.23;2.40;;;;;;;11.83;100.00;99663.84;5025747;28;20201;-80
2022/05/07 01:17:50;;;;;;;4.27;2.47;;;;;;;11.98;100.00;99676.19;4954948;29;20239;-79
2022/05/07 01:20:18;;;;;;;2.97;2.33;;;;;;;11.90;100.00;99666.97;4946095;29;20192;-80
2022/05/07 01:22:50;;;;;;;3.37;2.10;;;;;;;11.68;100.00;99667.41;4960264;28;20195;-80
2022/05/07 01:25:19;;;;;;;3.93;2.43;;;;;;;11.50;100.00;99671.16;5009786;28;20201;-80
2022/05/07 01:27:48;;;;;;;2.90;2.33;;;;;;;11.62;100.00;99671.28;5008256;28;20206;-80
2022/05/07 01:30:18;;;;;;;5.93;2.50;;;;;;;11.66;100.00;99672.78;5006944;28;20252;-80
2022/05/07 01:32:46;;;;;;;4.87;2.70;;;;;;;11.40;100.00;99676.16;5009934;28;20237;-83
2022/05/07 01:35:18;;;;;;;5.33;2.73;;;;;;;11.45;100.00;99666.13;5009041;28;20191;-80
2022/05/07 01:37:49;;;;;;;4.87;2.20;;;;;;;11.44;100.00;99665.25;5011268;28;20206;-80
2022/05/07 01:40:18;;;;;;;4.40;2.60;;;;;;;11.62;100.00;99670.41;5004117;28;20195;-80
2022/05/07 01:42:47;;;;;;;4.23;2.73;;;;;;;11.44;100.00;99656.44;5005990;28;20225;-80
2022/05/07 01:45:15;;;;;;;5.50;2.50;;;;;;;11.30;100.00;99664.38;5007867;28;20194;-80
2022/05/07 01:50:30;;;;;;;3.17;2.40;;;;;;;11.03;100.00;99657.09;5095289;27;20195;-80
2022/05/07 01:53:01;;;;;;;3.67;2.50;;;;;;;11.06;100.00;99656.06;5096537;27;20211;-79
2022/05/07 01:55:30;;;;;;;3.67;2.60;;;;;;;11.16;100.00;99659.88;5092776;28;20275;-80
2022/05/07 01:58:00;;;;;;;4.27;2.67;;;;;;;11.09;100.00;99664.66;5089897;28;20198;-80
2022/05/07 02:00:30;;;;;;;7.30;3.00;;;;;;;11.07;100.00;99658.59;5096344;27;20203;-79
2022/05/07 02:03:01;;;;;;;5.80;2.63;;;;;;;10.86;100.00;99667.78;5069119;28;20275;-80
2022/05/07 02:05:30;;;;;;;4.83;2.50;;;;;;;10.96;100.00;99662.81;5063434;28;20283;-79
2022/05/07 02:08:02;;;;;;;3.33;2.80;;;;;;;11.01;100.00;99661.63;5067376;28;20196;-80
2022/05/07 02:10:32;;;;;;;4.10;3.20;;;;;;;11.02;100.00;99657.19;5071776;28;20188;-80
2022/05/07 02:13:03;;;;;;;4.77;2.67;;;;;;;11.11;100.00;99661.94;5065939;28;20235;-79
2022/05/07 02:15:31;;;;;;;2.80;2.50;;;;;;;11.04;100.00;99658.78;5062191;28;20196;-80
2022/05/07 02:18:08;;;;;;;3.77;2.93;;;;;;;10.99;100.00;99654.69;5067120;28;20192;-80
2022/05/07 02:20:39;;;;;;;4.33;2.70;;;;;;;11.03;100.00;99649.13;5076976;28;20219;-80
2022/05/07 02:23:09;;;;;;;5.90;2.60;;;;;;;11.01;100.00;99647.53;5088865;28;20262;-80
2022/05/07 02:25:43;;;;;;;4.43;2.83;;;;;;;11.09;100.00;99647.91;5091126;28;20199;-80
2022/05/07 02:28:14;;;;;;;3.00;2.67;;;;;;;10.83;100.00;99660.88;5066018;28;20188;-80
2022/05/07 02:30:42;;;;;;;4.47;2.83;;;;;;;10.84;100.00;99654.63;5071312;28;20311;-80
2022/05/07 02:33:12;;;;;;;5.40;2.63;;;;;;;10.73;100.00;99657.06;5068767;28;20690;-80
2022/05/07 02:35:40;;;;;;;4.13;3.00;;;;;;;10.60;100.00;99656.88;4990684;28;20199;-80
2022/05/07 02:38:10;;;;;;;4.10;2.90;;;;;;;10.86;100.00;99643.94;4988628;28;20207;-79
2022/05/07 02:43:20;;;;;;;4.37;3.07;;;;;;;10.70;100.00;99651.06;4988461;28;20207;-80
2022/05/07 02:45:49;;;;;;;4.20;2.77;;;;;;;10.72;100.00;99659.78;4990680;28;20222;-80
2022/05/07 02:48:18;;;;;;;5.13;3.20;;;;;;;10.56;100.00;99651.84;4987050;28;20195;-80
2022/05/07 02:50:46;;;;;;;4.03;2.93;;;;;;;10.51;100.00;99653.88;4992026;28;20210;-80
2022/05/07 02:53:16;;;;;;;4.00;2.90;;;;;;;10.33;100.00;99653.13;4910608;29;20313;-80
2022/05/07 02:55:45;;;;;;;4.23;3.27;;;;;;;10.29;100.00;99660.38;4912576;29;20320;-80
2022/05/07 02:58:13;;;;;;;5.13;3.23;;;;;;;10.22;100.00;99655.47;4911812;29;20210;-79
2022/05/07 03:00:41;;;;;;;3.80;2.90;;;;;;;10.31;100.00;99655.84;4929455;29;20213;-79
2022/05/07 03:03:12;;;;;;;7.37;3.40;;;;;;;10.12;100.00;99665.69;4924752;29;20205;-80
2022/05/07 03:05:40;;;;;;;5.37;3.37;;;;;;;10.22;100.00;99658.13;4930175;28;20697;-80
2022/05/07 03:08:08;;;;;;;5.00;2.90;;;;;;;10.34;100.00;99665.44;5028563;28;20190;-79
2022/05/07 03:10:38;;;;;;;4.17;2.90;;;;;;;10.31;100.00;99663.78;5038444;28;20356;-80
2022/05/07 03:13:06;;;;;;;3.70;3.10;;;;;;;10.20;100.00;99662.63;5092395;28;20242;-80
2022/05/07 03:15:35;;;;;;;4.03;3.07;;;;;;;10.20;100.00;99654.69;5087997;28;20208;-80
2022/05/07 03:18:08;;;;;;;4.20;2.90;;;;;;;10.18;100.00;99659.22;5092262;28;20647;-80
2022/05/07 03:20:37;;;;;;;4.10;3.00;;;;;;;10.35;100.00;99659.19;5088313;28;20225;-80
2022/05/07 03:23:05;;;;;;;3.80;3.07;;;;;;;10.42;100.00;99657.03;5085851;28;20327;-80
2022/05/07 03:25:35;;;;;;;3.13;2.70;;;;;;;10.29;100.00;99668.31;5086133;28;20188;-80
2022/05/07 03:28:05;;;;;;;3.70;3.00;;;;;;;10.12;100.00;99664.84;5085426;28;20204;-80
2022/05/07 03:30:34;;;;;;;5.53;3.23;;;;;;;9.88;100.00;99669.66;5088382;28;20200;-79
2022/05/07 03:33:02;;;;;;;3.90;3.10;;;;;;;9.74;100.00;99665.06;5024583;28;20291;-80
2022/05/07 03:35:33;;;;;;;6.83;3.20;;;;;;;9.72;100.00;99670.44;5026551;28;20190;-80
2022/05/07 03:38:03;;;;;;;4.33;3.30;;;;;;;9.97;100.00;99663.88;5028125;28;20210;-80
2022/05/07 03:40:33;;;;;;;5.93;3.20;;;;;;;9.95;100.00;99661.31;5023363;28;20194;-80
2022/05/07 03:43:05;;;;;;;5.13;3.43;;;;;;;9.93;100.00;99657.03;5024697;28;20205;-80
2022/05/07 03:45:35;;;;;;;6.00;3.23;;;;;;;9.98;100.00;99661.13;5024732;28;20668;-80
2022/05/07 03:48:05;;;;;;;5.63;3.00;;;;;;;10.00;100.00;99664.56;5028346;28;20197;-79
2022/05/07 03:50:35;;;;;;;3.70;2.73;;;;;;;10.06;100.00;99658.09;5028775;28;20208;-80
2022/05/07 03:56:04;;;;;;;4.93;3.03;;;;;;;9.66;100.00;99662.84;4952723;29;20197;-80
2022/05/07 03:58:38;;;;;;;3.97;3.10;;;;;;;9.52;100.00;99662.69;5067688;28;20199;-79
2022/05/07 04:01:11;;;;;;;3.50;3.00;;;;;;;9.65;100.00;99666.44;5091960;28;20195;-80
2022/05/07 04:03:40;;;;;;;4.63;2.43;;;;;;;9.64;100.00;99667.34;5083925;28;20211;-80
2022/05/07 04:06:09;;;;;;;4.30;2.63;;;;;;;9.45;100.00;99666.56;5090886;28;20191;-79
2022/05/07 04:08:38;;;;;;;2.63;2.40;;;;;;;9.36;100.00;99673.22;5083842;28;20196;-79
2022/05/07 04:11:08;;;;;;;4.43;2.70;;;;;;;9.20;100.00;99666.13;5094249;28;20199;-80
2022/05/07 04:13:39;;;;;;;4.77;2.97;;;;;;;9.03;100.00;99670.47;5093939;28;20226;-79
2022/05/07 04:16:11;;;;;;;6.03;3.10;;;;;;;9.05;100.00;99673.88;5085715;28;20195;-80
2022/05/07 04:18:40;;;;;;;6.53;2.80;;;;;;;9.29;100.00;99676.25;5096313;28;20195;-80
2022/05/07 04:21:09;;;;;;;4.30;3.17;;;;;;;9.35;100.00;99675.91;5093997;28;20638;-80
2022/05/07 04:23:40;;;;;;;3.60;3.10;;;;;;;9.26;100.00;99679.88;5093099;28;20254;-80
2022/05/07 04:26:14;;;;;;;4.03;3.30;;;;;;;9.08;100.00;99678.19;5095389;28;20275;-80
2022/05/07 04:28:44;;;;;;;4.67;3.40;;;;;;;9.08;100.00;99675.53;5068429;28;20192;-79
2022/05/07 04:31:17;;;;;;;4.90;3.77;;;;;;;9.26;100.00;99685.16;5070098;28;20203;-78
2022/05/07 04:33:46;;;;;;;5.40;3.60;;;;;;;9.14;100.00;99676.06;5065596;28;20268;-80
2022/05/07 04:36:15;;;;;;;5.10;3.30;;;;;;;9.36;100.00;99674.97;5016205;28;20192;-80
2022/05/07 04:38:45;;;;;;;4.73;3.40;;;;;;;9.59;100.00;99679.13;5070759;28;20196;-80
2022/05/07 04:41:16;;;;;;;4.13;3.20;;;;;;;9.68;100.00;99676.84;5066807;28;20220;-80
2022/05/07 04:43:47;;;;;;;6.30;3.60;;;;;;;9.53;100.00;99677.63;5066666;28;20234;-79
2022/05/07 04:46:15;;;;;;;5.93;3.50;;;;;;;9.77;100.00;99685.25;5069219;28;20196;-80
2022/05/07 04:48:47;;;;;;;7.77;4.13;;;;;;;9.54;100.00;99679.34;5092531;28;20188;-80
2022/05/07 04:51:19;;;;;;;6.97;3.93;;;;;;;9.63;100.00;99686.78;5095309;28;20196;-80
2022/05/07 04:54:07;;;;;;;6.23;4.03;;;;;;;9.67;100.00;99688.38;5095691;28;20218;-80
2022/05/07 04:56:36;;;;;;;4.97;3.60;;;;;;;9.75;100.00;99691.47;5094127;28;20187;-80
2022/05/07 04:59:06;;;;;;;4.33;3.60;;;;;;;9.80;100.00;99693.00;5091669;28;20200;-80
2022/05/07 05:01:35;;;;;;;3.53;3.10;;;;;;;9.82;100.00;99693.78;5089240;28;20211;-80
2022/05/07 05:04:04;;;;;;;4.87;3.50;;;;;;;9.90;100.00;99696.88;5089596;28;20207;-80
2022/05/07 05:06:33;;;;;;;5.13;3.70;;;;;;;9.91;100.00;99695.94;5097469;27;20199;-80
2022/05/07 05:09:02;;;;;;;5.87;3.40;;;;;;;9.90;100.00;99695.09;5095023;28;20195;-80
2022/05/07 05:11:32;;;;;;;4.17;3.50;;;;;;;10.06;100.00;99695.16;5095110;28;20275;-80
2022/05/07 05:14:01;;;;;;;5.23;3.07;;;;;;;10.09;100.00;99696.75;5089949;28;20298;-80
2022/05/07 05:16:32;;;;;;;3.27;2.97;;;;;;;10.18;100.00;99697.13;5094794;28;20188;-80
2022/05/07 05:19:02;;;;;;;3.73;2.77;;;;;;;10.18;100.00;99698.91;5091483;28;20191;-80
2022/05/07 05:21:30;;;;;;;7.83;3.00;;;;;;;10.07;100.00;99698.66;5089857;28;20188;-80
2022/05/07 05:23:59;;;;;;;6.37;3.13;;;;;;;10.32;100.00;99704.34;5093687;28;20234;-80
2022/05/07 05:26:29;;;;;;;4.50;3.27;;;;;;;10.49;100.00;99712.22;5094717;28;20191;-80
2022/05/07 05:28:58;;;;;;;4.37;3.13;;;;;;;10.53;100.00;99710.28;5094581;28;20470;-79
2022/05/07 05:31:28;;;;;;;4.13;3.10;;;;;;;10.51;100.00;99705.06;5087159;28;20235;-80
2022/05/07 05:34:01;;;;;;;5.40;3.53;;;;;;;10.61;100.00;99710.69;5093068;28;20283;-80
2022/05/07 05:36:30;;;;;;;5.13;3.37;;;;;;;10.69;100.00;99708.47;5094384;28;20223;-81
2022/05/07 05:38:59;;;;;;;4.37;3.43;;;;;;;10.65;100.00;99714.06;5086229;28;20200;-80
2022/05/07 05:41:27;;;;;;;5.43;3.80;;;;;;;10.74;100.00;99709.09;5096524;27;20192;-81
2022/05/07 05:43:57;;;;;;;4.87;3.87;;;;;;;10.92;100.00;99709.00;5089060;28;20200;-79
2022/05/07 05:46:27;;;;;;;4.80;3.80;;;;;;;10.99;100.00;99716.50;5092086;28;20235;-80
2022/05/07 05:48:57;;;;;;;5.57;3.70;;;;;;;11.11;100.00;99710.53;5093166;28;20657;-80
2022/05/07 05:51:27;;;;;;;4.67;3.73;;;;;;;11.19;100.00;99715.38;5076153;28;20619;-80
2022/05/07 05:53:58;;;;;;;5.73;4.10;;;;;;;11.29;100.00;99707.72;5085702;28;20204;-80
2022/05/07 05:56:26;;;;;;;6.27;3.97;;;;;;;11.49;100.00;99712.75;5092292;28;20188;-80
2022/05/07 05:58:57;;;;;;;4.77;3.53;;;;;;;11.59;100.00;99710.41;5092427;28;20224;-79
2022/05/07 06:01:26;;;;;;;5.03;4.00;;;;;;;11.62;100.00;99711.06;5089014;28;20199;-80
2022/05/07 06:03:55;;;;;;;7.93;4.30;;;;;;;11.66;100.00;99717.88;5065230;28;20223;-80
2022/05/07 06:06:24;;;;;;;5.10;4.00;;;;;;;11.69;100.00;99711.56;5066949;28;20223;-79
2022/05/07 06:08:54;;;;;;;5.10;4.10;;;;;;;11.95;100.00;99710.00;5070604;28;20192;-80
2022/05/07 06:11:22;;;;;;;4.47;3.97;;;;;;;12.04;100.00;99712.09;5064630;28;20200;-80
2022/05/07 06:13:51;;;;;;;9.03;4.03;;;;;;;12.20;100.00;99714.69;4999330;28;20210;-79
2022/05/07 06:16:24;;;;;;;3.87;3.23;;;;;;;12.31;100.00;99712.22;4989862;28;20198;-80
2022/05/07 06:18:53;;;;;;;7.87;4.43;;;;;;;12.46;100.00;99708.63;4982956;28;20293;-81
2022/05/07 06:21:24;;;;;;;4.97;4.17;;;;;;;12.51;100.00;99714.47;4991464;28;20201;-81
2022/05/07 06:23:55;;;;;;;6.40;3.83;;;;;;;12.64;100.00;99709.22;5001479;28;20230;-80
2022/05/07 06:29:12;;;;;;;4.60;3.77;;;;;;;12.87;100.00;99713.09;5011473;28;20194;-80
2022/05/07 06:31:41;;;;;;;5.07;4.10;;;;;;;13.00;100.00;99705.16;5006835;28;20213;-80
2022/05/07 06:34:22;;;;;;;5.53;4.10;;;;;;;13.11;100.00;99700.84;4944962;28;20203;-81
2022/05/07 06:36:54;;;;;;;6.10;4.00;;;;;;;13.07;100.00;99706.47;4969645;28;20299;-81
2022/05/07 06:39:26;;;;;;;5.40;3.80;;;;;;;13.38;100.00;99708.84;5020252;28;20197;-81
2022/05/07 06:41:55;;;;;;;6.33;4.30;;;;;;;13.48;100.00;99711.75;5027449;28;20622;-81
2022/05/07 06:44:28;;;;;;;5.60;4.13;;;;;;;13.65;100.00;99714.13;5027426;28;20204;-80
2022/05/07 06:46:59;;;;;;;5.97;3.83;;;;;;;13.83;100.00;99714.69;5029603;28;20369;-81
2022/05/07 06:49:30;;;;;;;8.40;4.20;;;;;;;13.90;100.00;99704.47;5022294;28;20205;-80
2022/05/07 06:52:00;;;;;;;5.43;4.00;;;;;;;14.15;100.00;99703.59;4995803;28;20202;-81
2022/05/07 06:54:32;;;;;;;5.67;4.43;;;;;;;14.13;100.00;99703.72;5027994;28;20202;-82
2022/05/07 06:57:02;;;;;;;8.40;4.57;;;;;;;14.36;100.00;99701.25;5023742;28;20190;-81
2022/05/07 06:59:32;;;;;;;5.37;4.20;;;;;;;14.52;100.00;99696.56;5032700;28;20256;-81
2022/05/07 07:02:01;;;;;;;5.57;4.60;;;;;;;14.56;100.00;99704.22;5048836;28;20201;-81
2022/05/07 07:04:32;;;;;;;8.17;4.83;;;;;;;14.70;100.00;99695.25;5041131;28;20279;-81
2022/05/07 07:07:01;;;;;;;5.87;4.80;;;;;;;14.91;100.00;99697.31;5048659;28;20189;-83
2022/05/07 07:09:32;;;;;;;5.57;4.77;;;;;;;14.92;100.00;99701.66;4991921;28;20245;-82
2022/05/07 07:12:00;;;;;;;7.63;4.50;;;;;;;14.79;100.00;99693.72;4984641;28;20210;-82
2022/05/07 07:14:29;;;;;;;9.20;5.17;;;;;;;15.02;100.00;99700.03;4985354;28;20206;-80
2022/05/07 07:16:59;;;;;;;9.40;4.90;;;;;;;15.10;100.00;99703.00;4960579;28;20213;-81
2022/05/07 07:19:28;;;;;;;9.00;5.30;;;;;;;15.10;100.00;99694.97;5009925;28;20241;-81
2022/05/07 07:21:57;;;;;;;8.87;4.73;;;;;;;15.37;100.00;99702.75;4952700;28;20247;-81
2022/05/07 07:24:26;;;;;;;7.83;4.70;;;;;;;15.48;100.00;99697.47;4876702;29;20287;-81
2022/05/07 07:26:56;;;;;;;6.43;4.20;;;;;;;15.59;100.00;99700.16;4882806;29;20278;-81
2022/05/07 07:29:26;;;;;;;6.70;4.07;;;;;;;15.76;100.00;99698.06;4913735;29;20655;-81
2022/05/07 07:31:55;;;;;;;5.80;4.67;;;;;;;15.51;100.00;99694.53;4917372;29;20193;-80
2022/05/07 07:34:26;;;;;;;5.53;4.20;;;;;;;15.69;100.00;99700.34;4907865;29;20202;-81
2022/05/07 07:36:57;;;;;;;6.00;4.13;;;;;;;15.64;100.00;99691.84;4875835;29;20238;-81
2022/05/07 07:39:26;;;;;;;6.23;3.97;;;;;;;16.03;100.00;99685.25;4891437;29;20208;-81
2022/05/07 07:41:59;;;;;;;7.83;4.70;;;;;;;16.03;100.00;99688.75;4880499;29;20286;-81
2022/05/07 07:44:28;;;;;;;6.47;4.47;;;;;;;16.18;100.00;99699.22;4877404;29;20214;-80
2022/05/07 07:49:47;;;;;;;6.43;3.80;;;;;;;16.38;100.00;99692.28;4941216;28;20196;-81
2022/05/07 07:52:19;;;;;;;4.53;3.80;;;;;;;16.70;100.00;99685.25;5009190;28;20191;-81
2022/05/07 07:54:48;;;;;;;5.43;3.87;;;;;;;16.85;100.00;99688.50;5022671;28;20201;-81
2022/05/07 07:57:18;;;;;;;7.30;3.83;;;;;;;16.83;100.00;99698.50;5044855;28;20208;-82
2022/05/07 07:59:47;;;;;;;5.00;3.77;;;;;;;17.14;100.00;99694.16;5054634;28;20197;-83
2022/05/07 08:02:17;;;;;;;6.77;3.87;;;;;;;17.24;100.00;99692.41;5050739;28;20654;-81
2022/05/07 08:04:46;;;;;;;6.40;3.67;;;;;;;17.29;100.00;99690.22;5046905;28;20303;-81
2022/05/07 08:12:57;;;;;;;4.27;3.30;;;;;;;17.93;100.00;99695.50;5096496;28;20279;-81
2022/05/07 08:15:31;;;;;;;4.33;2.73;;;;;;;18.12;100.00;99689.38;5095364;28;20670;-82
2022/05/07 08:17:59;;;;;;;2.77;2.40;;;;;;;18.15;100.00;99699.88;5091781;28;20283;-81
2022/05/07 08:20:28;;;;;;;3.23;2.43;;;;;;;17.89;100.00;99696.75;5090776;28;20192;-82
2022/05/07 08:22:59;;;;;;;3.77;2.20;;;;;;;17.88;100.00;99692.38;5088044;28;20239;-81
2022/05/07 08:25:28;;;;;;;4.17;1.93;;;;;;;18.19;100.00;99689.72;5054011;28;20189;-81
2022/05/07 08:28:11;;;;;;;2.60;1.90;;;;;;;18.63;100.00;99696.56;4972496;28;20206;-81
2022/05/07 08:30:47;;;;;;;3.20;1.90;;;;;;;18.87;97.16;99693.53;4968605;28;20198;-81
2022/05/07 08:33:18;;;;;;;6.80;2.20;;;;;;;18.69;90.45;99692.47;4968689;28;20192;-82
2022/05/07 08:35:48;;;;;;;2.97;2.00;;;;;;;18.67;92.96;99698.00;4972995;28;20227;-81
2022/05/07 08:38:18;;;;;;;3.10;1.83;;;;;;;19.17;91.14;99696.13;4967234;28;20710;-80
2022/05/07 08:40:47;;;;;;;2.57;2.23;;;;;;;19.44;90.18;99692.75;4972462;28;20192;-82
2022/05/07 08:43:22;;;;;;;2.87;2.40;;;;;;;19.38;91.41;99693.28;4984626;28;20195;-82
2022/05/07 08:45:51;;;;;;;3.80;1.90;;;;;;;19.59;93.73;99687.84;4932552;29;20201;-81
2022/05/07 08:48:23;;;;;;;4.87;2.20;;;;;;;19.52;94.00;99683.13;4916448;29;20213;-81
2022/05/07 08:50:54;;;;;;;4.40;2.20;;;;;;;19.58;94.38;99682.56;4914940;29;20241;-82
2022/05/07 08:53:31;;;;;;;3.33;2.20;;;;;;;19.80;92.78;99684.13;4978057;28;20207;-81
2022/05/07 08:56:05;;;;;;;3.27;2.23;;;;;;;19.78;93.87;99678.88;4986908;28;20262;-81
2022/05/07 08:58:39;;;;;;;4.22;2.63;;;;;;;19.47;94.97;99688.91;4959497;28;20210;-82
2022/05/07 09:01:08;;;;;;;4.40;2.30;;;;;;;19.95;93.25;99682.66;4951166;28;20218;-82
2022/05/07 09:03:41;;;;;;;2.58;2.20;;;;;;;19.66;93.59;99682.72;4972945;28;20217;-82
2022/05/07 09:06:22;;;;;;;3.83;2.17;;;;;;;19.56;91.20;99684.56;4952211;28;20197;-81
2022/05/07 09:08:55;;;;;;;4.10;2.03;;;;;;;19.94;90.56;99687.19;4952475;28;20204;-82
2022/05/07 09:11:28;;;;;;;3.75;2.03;;;;;;;20.33;85.65;99681.69;4947982;28;20679;-81
2022/05/07 09:14:08;;;;;;;2.07;1.87;;;;;;;20.47;82.99;99680.41;4984683;28;20210;-82
2022/05/07 09:16:46;;;;;;;2.70;1.63;;;;;;;20.94;75.08;99678.47;4988083;28;20364;-82
2022/05/07 09:19:25;;;;;;;2.55;1.85;;;;;;;20.57;75.44;99687.44;4991129;28;20206;-82
2022/05/07 09:22:08;;;;;;;2.30;1.70;;;;;;;21.09;70.26;99676.94;4955170;28;20219;-81
2022/05/07 09:24:46;;;;;;;2.20;1.70;;;;;;;21.23;69.77;99678.25;4949073;28;20305;-82
2022/05/07 09:27:18;;;;;;;2.30;1.80;;;;;;;20.66;70.21;99677.63;4992581;28;20194;-82
2022/05/07 09:30:00;;;;;;;3.42;1.98;;;;;;;20.27;70.47;99688.53;4988773;28;20203;-81
2022/05/07 09:32:38;;;;;;;4.93;2.20;;;;;;;20.95;69.03;99682.00;4986901;28;20194;-82
2022/05/07 09:38:05;;;;;;;2.42;2.00;;;;;;;21.86;65.35;99686.22;4992752;28;20230;-82
2022/05/07 09:40:40;;;;;;;4.40;2.20;;;;;;;22.09;64.99;99678.47;4990019;28;20226;-81
2022/05/07 09:43:13;;;;;;;4.22;2.22;;;;;;;22.23;62.08;99675.22;4969915;28;20199;-81
2022/05/07 09:45:49;;;;;;;3.33;2.40;;;;;;;22.43;59.73;99667.72;4971977;28;20200;-81
2022/05/07 09:48:21;;;;;;;4.40;2.67;;;;;;;22.65;59.94;99666.28;4962718;28;20258;-82
2022/05/07 09:50:52;;;;;;;4.32;2.33;;;;;;;22.39;61.00;99665.50;5025823;28;20190;-82
2022/05/07 09:58:56;;;;;;;3.75;2.55;;;;;;;22.30;62.28;99650.28;5031983;28;20305;-80
2022/05/07 10:01:44;;;;;;;4.38;2.40;;;;;;;22.87;66.38;99648.66;5016982;28;20764;-81
2022/05/07 10:04:51;;;;;;;2.67;2.28;;;;;;;22.55;68.89;99652.91;5009671;28;20285;-81
2022/05/07 10:07:41;;;;;;;3.65;2.38;;;;;;;22.70;61.96;99650.44;4951235;28;20706;-81
2022/05/07 10:10:25;;;;;;;4.60;2.35;;;;;;;23.51;52.95;99641.66;4953687;29;20236;-82
2022/05/07 10:12:56;;;;;;;4.22;2.40;;;;;;;23.97;49.97;99650.09;4931011;28;20203;-82
2022/05/07 10:15:26;;;;;;;2.88;2.60;;;;;;;23.24;48.42;99648.22;4892387;29;20198;-81
2022/05/07 10:18:02;;;;;;;2.83;2.38;;;;;;;22.30;52.31;99643.03;4821016;29;20257;-81
2022/05/07 10:20:45;;;;;;;4.40;2.67;;;;;;;22.95;54.47;99637.88;4789322;29;20204;-82
2022/05/07 10:23:32;;;;;;;7.60;2.42;;;;;;;23.42;52.98;99629.97;4871657;29;20254;-81
2022/05/07 10:26:04;;;;;;;5.15;2.38;;;;;;;23.58;47.87;99634.56;4873917;29;20286;-81
2022/05/07 10:28:40;;;;;;;5.10;2.67;;;;;;;23.52;48.20;99631.69;4875342;29;20286;-81
2022/05/07 10:31:18;;;;;;;3.33;2.78;;;;;;;22.38;51.96;99634.94;4876566;29;20207;-80
2022/05/07 10:33:51;;;;;;;2.53;2.20;;;;;;;22.96;54.46;99630.59;4955459;28;20315;-80
2022/05/07 10:36:25;;;;;;;6.88;2.55;;;;;;;23.35;53.86;99639.78;4991876;28;20206;-80
2022/05/07 10:38:54;;;;;;;2.88;2.13;;;;;;;23.06;54.30;99628.59;4934940;29;20220;-81
2022/05/07 10:41:24;;;;;;;4.00;2.35;;;;;;;23.42;52.20;99624.56;4926721;29;20209;-80
2022/05/07 10:44:06;;;;;;;4.32;2.40;;;;;;;23.26;52.77;99621.88;4987257;28;20223;-80
2022/05/07 10:46:42;;;;;;;5.72;3.42;;;;;;;24.35;53.39;99623.28;4989507;28;20202;-81
2022/05/07 10:49:21;;;;;;;4.35;3.13;;;;;;;23.48;55.34;99623.06;5005067;28;20197;-81
2022/05/07 10:51:53;;;;;;;5.05;3.30;;;;;;;24.10;50.43;99617.06;4989486;28;20201;-80
2022/05/07 10:54:23;;;;;;;4.15;2.95;;;;;;;24.22;50.60;99618.38;4988043;28;20191;-81
2022/05/07 10:56:55;;;;;;;6.43;3.70;;;;;;;24.16;49.00;99611.81;5014574;28;20231;-80
2022/05/07 10:59:28;;;;;;;5.55;3.10;;;;;;;24.24;49.40;99619.91;5045718;28;20216;-81
2022/05/07 11:02:05;;;;;;;5.70;2.80;;;;;;;24.31;50.37;99621.91;5012817;28;20198;-80
2022/05/07 11:04:45;;;;;;;2.83;2.63;;;;;;;24.65;49.51;99614.34;5007144;28;20285;-80
2022/05/07 11:07:22;;;;;;;5.10;2.88;;;;;;;24.66;51.98;99601.63;5003706;28;20664;-80
2022/05/07 11:09:52;;;;;;;3.70;3.10;;;;;;;24.61;48.88;99610.31;5028772;28;20200;-81
2022/05/07 11:12:22;;;;;;;3.97;2.80;;;;;;;24.76;47.82;99608.53;5068674;28;20208;-80
2022/05/07 11:14:54;;;;;;;5.70;3.28;;;;;;;24.42;49.71;99613.44;5067458;28;20196;-80
2022/05/07 11:17:33;;;;;;;4.80;3.78;;;;;;;23.92;49.97;99609.16;5048087;28;20217;-80
2022/05/07 11:20:32;;;;;;;6.95;3.40;;;;;;;23.68;50.86;99607.38;5066556;28;20201;-80
2022/05/07 11:23:02;;;;;;;7.03;4.50;;;;;;;24.37;47.57;99607.69;4910180;28;20226;-81
2022/05/07 11:25:33;;;;;;;4.80;3.15;;;;;;;25.08;45.13;99603.94;4956599;28;20239;-80
2022/05/07 11:28:02;;;;;;;5.38;3.30;;;;;;;25.24;43.45;99589.41;4955438;28;20710;-80
2022/05/07 11:30:32;;;;;;;4.03;3.35;;;;;;;25.01;43.45;99589.41;4937219;29;20209;-81
2022/05/07 11:33:05;;;;;;;4.72;3.20;;;;;;;25.20;44.06;99588.94;4915406;29;20293;-81
2022/05/07 11:35:37;;;;;;;5.53;3.70;;;;;;;25.70;43.25;99595.66;4919609;29;20197;-80
2022/05/07 11:38:13;;;;;;;4.50;3.13;;;;;;;25.72;44.75;99590.88;4933881;29;20231;-81
2022/05/07 11:40:48;;;;;;;5.22;3.47;;;;;;;25.52;43.73;99579.69;4963127;28;20195;-83
2022/05/07 11:46:11;;;;;;;5.72;3.40;;;;;;;25.24;44.36;99589.41;4995630;28;20203;-81
2022/05/07 11:48:40;;;;;;;3.40;2.85;;;;;;;25.65;42.89;99587.19;4990303;28;20207;-81
2022/05/07 11:51:13;;;;;;;6.05;4.05;;;;;;;25.55;43.57;99582.00;5010181;28;20213;-81
2022/05/07 11:53:42;;;;;;;4.55;3.55;;;;;;;25.13;43.76;99581.72;5031839;28;20205;-80
2022/05/07 11:56:12;;;;;;;4.63;3.50;;;;;;;25.65;41.52;99582.59;5092752;28;20184;-80
2022/05/07 11:58:42;;;;;;;5.40;3.10;;;;;;;25.89;41.85;99584.25;5093480;28;20211;-81
2022/05/07 12:01:20;;;;;;;3.92;3.08;;;;;;;25.78;41.49;99575.72;5091190;28;20234;-80
2022/05/07 12:03:50;;;;;;;3.85;3.20;;;;;;;25.37;43.19;99573.34;5085164;28;20203;-81
2022/05/07 12:06:31;;;;;;;6.13;3.78;;;;;;;24.07;47.78;99580.38;5074209;28;20188;-80
2022/05/07 12:09:00;;;;;;;5.38;3.00;;;;;;;24.55;47.25;99570.38;5069456;28;20687;-81
2022/05/07 12:11:29;;;;;;;6.25;3.20;;;;;;;25.53;43.36;99566.94;5067338;28;20203;-81
2022/05/07 12:13:59;;;;;;;3.63;2.72;;;;;;;26.17;41.58;99570.03;5061773;28;20188;-80
2022/05/07 12:19:14;;;;;;;7.03;3.33;;;;;;;25.93;41.25;99558.41;5072523;28;20223;-81
2022/05/07 12:30:06;;;;;;;6.10;3.42;;;;;;;26.39;41.52;99544.63;4917852;29;20242;-81
2022/05/07 12:32:38;;;;;;;4.50;3.70;;;;;;;24.24;44.90;99543.25;4988095;28;20199;-81
2022/05/07 12:35:09;;;;;;;4.43;3.05;;;;;;;24.98;45.74;99540.94;4969043;28;20203;-81